sensor_id;sensor_type;location;lat;lon;timestamp;P1;durP1;ratioP1;P2;durP2;ratioP2
66587;SDS011;53446;50.076;8.198;2023-06-05T00:01:32;99.57;;;68.93;;
66587;SDS011;53446;50.076;8.198;2023-06-05T00:03:34;94.75;;;66.47;;
66587;SDS011;53446;50.076;8.198;2023-06-05T00:05:34;100.07;;;68.78;;
66587;SDS011;53446;50.076;8.198;2023-06-05T00:07:36;94.85;;;66.72;;
66587;SDS011;53446;50.076;8.198;2023-06-05T00:09:39;94.65;;;66.97;;
66587;SDS011;53446;50.076;8.198;2023-06-05T00:11:40;91.82;;;65.47;;
66587;SDS011;53446;50.076;8.198;2023-06-05T00:13:41;92.13;;;66.00;;
66587;SDS011;53446;50.076;8.198;2023-06-05T00:15:41;94.60;;;66.77;;
66587;SDS011;53446;50.076;8.198;2023-06-05T00:17:41;97.17;;;67.83;;
66587;SDS011;53446;50.076;8.198;2023-06-05T00:19:42;98.85;;;66.32;;
66587;SDS011;53446;50.076;8.198;2023-06-05T00:21:42;102.45;;;67.55;;
66587;SDS011;53446;50.076;8.198;2023-06-05T00:23:42;94.83;;;65.80;;
66587;SDS011;53446;50.076;8.198;2023-06-05T00:25:43;98.87;;;66.87;;
66587;SDS011;53446;50.076;8.198;2023-06-05T00:27:43;96.50;;;66.32;;
66587;SDS011;53446;50.076;8.198;2023-06-05T00:29:44;98.85;;;67.25;;
66587;SDS011;53446;50.076;8.198;2023-06-05T00:31:44;100.83;;;68.00;;
66587;SDS011;53446;50.076;8.198;2023-06-05T00:33:46;99.13;;;68.65;;
66587;SDS011;53446;50.076;8.198;2023-06-05T00:35:46;99.75;;;66.95;;
66587;SDS011;53446;50.076;8.198;2023-06-05T00:37:46;97.23;;;67.43;;
66587;SDS011;53446;50.076;8.198;2023-06-05T00:39:47;97.33;;;67.70;;
66587;SDS011;53446;50.076;8.198;2023-06-05T00:41:47;98.43;;;67.90;;
66587;SDS011;53446;50.076;8.198;2023-06-05T00:43:47;102.93;;;68.50;;
66587;SDS011;53446;50.076;8.198;2023-06-05T00:45:48;107.23;;;69.17;;
66587;SDS011;53446;50.076;8.198;2023-06-05T00:47:49;96.75;;;67.25;;
66587;SDS011;53446;50.076;8.198;2023-06-05T00:49:49;97.10;;;68.00;;
66587;SDS011;53446;50.076;8.198;2023-06-05T00:51:50;99.88;;;69.32;;
66587;SDS011;53446;50.076;8.198;2023-06-05T00:53:50;100.30;;;70.10;;
66587;SDS011;53446;50.076;8.198;2023-06-05T00:55:51;92.03;;;66.13;;
66587;SDS011;53446;50.076;8.198;2023-06-05T00:57:51;97.80;;;66.80;;
66587;SDS011;53446;50.076;8.198;2023-06-05T00:59:51;94.57;;;67.00;;
66587;SDS011;53446;50.076;8.198;2023-06-05T01:01:53;93.53;;;66.68;;
66587;SDS011;53446;50.076;8.198;2023-06-05T01:03:54;91.88;;;65.90;;
66587;SDS011;53446;50.076;8.198;2023-06-05T01:05:57;91.03;;;65.82;;
66587;SDS011;53446;50.076;8.198;2023-06-05T01:08:03;101.22;;;69.90;;
66587;SDS011;53446;50.076;8.198;2023-06-05T01:10:05;102.97;;;69.70;;
66587;SDS011;53446;50.076;8.198;2023-06-05T01:14:28;106.70;;;71.32;;
66587;SDS011;53446;50.076;8.198;2023-06-05T01:16:30;99.38;;;68.38;;
66587;SDS011;53446;50.076;8.198;2023-06-05T01:18:32;104.20;;;70.43;;
66587;SDS011;53446;50.076;8.198;2023-06-05T01:20:37;103.63;;;68.80;;
66587;SDS011;53446;50.076;8.198;2023-06-05T01:22:38;104.32;;;69.53;;
66587;SDS011;53446;50.076;8.198;2023-06-05T01:24:38;101.90;;;69.33;;
66587;SDS011;53446;50.076;8.198;2023-06-05T01:26:45;104.10;;;70.18;;
66587;SDS011;53446;50.076;8.198;2023-06-05T01:29:03;109.27;;;71.33;;
66587;SDS011;53446;50.076;8.198;2023-06-05T01:31:09;104.32;;;70.00;;
66587;SDS011;53446;50.076;8.198;2023-06-05T01:33:15;106.63;;;70.50;;
66587;SDS011;53446;50.076;8.198;2023-06-05T01:35:20;102.47;;;69.20;;
66587;SDS011;53446;50.076;8.198;2023-06-05T01:37:27;98.80;;;67.93;;
66587;SDS011;53446;50.076;8.198;2023-06-05T01:39:28;98.37;;;68.03;;
66587;SDS011;53446;50.076;8.198;2023-06-05T01:41:29;101.20;;;69.15;;
66587;SDS011;53446;50.076;8.198;2023-06-05T01:43:30;101.27;;;69.10;;
66587;SDS011;53446;50.076;8.198;2023-06-05T01:45:30;106.95;;;71.32;;
66587;SDS011;53446;50.076;8.198;2023-06-05T01:47:31;102.88;;;69.25;;
66587;SDS011;53446;50.076;8.198;2023-06-05T01:49:32;105.10;;;70.20;;
66587;SDS011;53446;50.076;8.198;2023-06-05T01:51:32;104.00;;;70.07;;
66587;SDS011;53446;50.076;8.198;2023-06-05T01:53:32;102.73;;;69.17;;
66587;SDS011;53446;50.076;8.198;2023-06-05T01:55:33;104.22;;;70.18;;
66587;SDS011;53446;50.076;8.198;2023-06-05T01:57:33;105.47;;;70.53;;
66587;SDS011;53446;50.076;8.198;2023-06-05T01:59:34;103.50;;;69.47;;
66587;SDS011;53446;50.076;8.198;2023-06-05T02:01:35;100.53;;;68.35;;
66587;SDS011;53446;50.076;8.198;2023-06-05T02:03:35;98.20;;;67.70;;
66587;SDS011;53446;50.076;8.198;2023-06-05T02:05:35;101.43;;;68.70;;
66587;SDS011;53446;50.076;8.198;2023-06-05T02:07:39;94.17;;;66.67;;
66587;SDS011;53446;50.076;8.198;2023-06-05T02:09:41;95.10;;;66.80;;
66587;SDS011;53446;50.076;8.198;2023-06-05T02:11:42;93.60;;;65.53;;
66587;SDS011;53446;50.076;8.198;2023-06-05T02:13:42;95.40;;;66.33;;
66587;SDS011;53446;50.076;8.198;2023-06-05T02:15:43;94.47;;;66.45;;
66587;SDS011;53446;50.076;8.198;2023-06-05T02:17:45;96.82;;;66.90;;
66587;SDS011;53446;50.076;8.198;2023-06-05T02:19:50;97.30;;;66.50;;
66587;SDS011;53446;50.076;8.198;2023-06-05T02:21:51;95.18;;;67.25;;
66587;SDS011;53446;50.076;8.198;2023-06-05T02:23:53;95.63;;;67.38;;
66587;SDS011;53446;50.076;8.198;2023-06-05T02:25:53;98.00;;;67.65;;
66587;SDS011;53446;50.076;8.198;2023-06-05T02:27:54;93.40;;;66.30;;
66587;SDS011;53446;50.076;8.198;2023-06-05T02:29:54;92.80;;;65.32;;
66587;SDS011;53446;50.076;8.198;2023-06-05T02:31:55;93.27;;;66.03;;
66587;SDS011;53446;50.076;8.198;2023-06-05T02:33:55;91.37;;;64.87;;
66587;SDS011;53446;50.076;8.198;2023-06-05T02:35:55;93.37;;;67.07;;
66587;SDS011;53446;50.076;8.198;2023-06-05T02:37:56;99.73;;;68.77;;
66587;SDS011;53446;50.076;8.198;2023-06-05T02:39:57;95.60;;;67.55;;
66587;SDS011;53446;50.076;8.198;2023-06-05T02:41:57;99.83;;;68.20;;
66587;SDS011;53446;50.076;8.198;2023-06-05T02:43:58;99.73;;;68.67;;
66587;SDS011;53446;50.076;8.198;2023-06-05T02:45:59;94.13;;;66.80;;
66587;SDS011;53446;50.076;8.198;2023-06-05T02:47:59;89.50;;;65.60;;
66587;SDS011;53446;50.076;8.198;2023-06-05T02:50:00;92.18;;;65.82;;
66587;SDS011;53446;50.076;8.198;2023-06-05T02:52:01;92.28;;;66.45;;
66587;SDS011;53446;50.076;8.198;2023-06-05T02:54:02;94.90;;;67.43;;
66587;SDS011;53446;50.076;8.198;2023-06-05T02:56:03;98.30;;;68.70;;
66587;SDS011;53446;50.076;8.198;2023-06-05T02:58:03;97.00;;;67.78;;
66587;SDS011;53446;50.076;8.198;2023-06-05T03:00:04;98.57;;;67.38;;
66587;SDS011;53446;50.076;8.198;2023-06-05T03:02:08;96.80;;;67.35;;
66587;SDS011;53446;50.076;8.198;2023-06-05T03:04:08;99.03;;;68.40;;
66587;SDS011;53446;50.076;8.198;2023-06-05T03:06:10;103.90;;;71.25;;
66587;SDS011;53446;50.076;8.198;2023-06-05T03:08:12;98.50;;;68.13;;
66587;SDS011;53446;50.076;8.198;2023-06-05T03:10:12;97.97;;;67.30;;
66587;SDS011;53446;50.076;8.198;2023-06-05T03:12:12;100.30;;;68.37;;
66587;SDS011;53446;50.076;8.198;2023-06-05T03:14:13;100.33;;;68.43;;
66587;SDS011;53446;50.076;8.198;2023-06-05T03:16:13;102.50;;;68.85;;
66587;SDS011;53446;50.076;8.198;2023-06-05T03:18:13;108.87;;;69.90;;
66587;SDS011;53446;50.076;8.198;2023-06-05T03:20:16;101.40;;;68.10;;
66587;SDS011;53446;50.076;8.198;2023-06-05T03:22:17;102.20;;;68.63;;
66587;SDS011;53446;50.076;8.198;2023-06-05T03:24:18;104.77;;;69.47;;
66587;SDS011;53446;50.076;8.198;2023-06-05T03:26:19;104.50;;;69.22;;
66587;SDS011;53446;50.076;8.198;2023-06-05T03:28:22;108.68;;;70.65;;
66587;SDS011;53446;50.076;8.198;2023-06-05T03:30:23;110.80;;;71.75;;
66587;SDS011;53446;50.076;8.198;2023-06-05T03:32:24;110.10;;;71.87;;
66587;SDS011;53446;50.076;8.198;2023-06-05T03:34:24;112.95;;;73.05;;
66587;SDS011;53446;50.076;8.198;2023-06-05T03:36:26;116.65;;;73.82;;
66587;SDS011;53446;50.076;8.198;2023-06-05T03:38:28;115.38;;;73.20;;
66587;SDS011;53446;50.076;8.198;2023-06-05T03:40:28;116.57;;;73.70;;
66587;SDS011;53446;50.076;8.198;2023-06-05T03:42:29;118.32;;;74.78;;
66587;SDS011;53446;50.076;8.198;2023-06-05T03:44:29;123.73;;;76.23;;
66587;SDS011;53446;50.076;8.198;2023-06-05T03:46:29;122.03;;;76.33;;
66587;SDS011;53446;50.076;8.198;2023-06-05T03:48:30;124.97;;;76.70;;
66587;SDS011;53446;50.076;8.198;2023-06-05T03:50:30;124.53;;;76.22;;
66587;SDS011;53446;50.076;8.198;2023-06-05T03:52:32;129.87;;;78.43;;
66587;SDS011;53446;50.076;8.198;2023-06-05T03:54:32;128.38;;;77.68;;
66587;SDS011;53446;50.076;8.198;2023-06-05T03:56:32;133.68;;;80.22;;
66587;SDS011;53446;50.076;8.198;2023-06-05T03:58:39;137.47;;;80.63;;
66587;SDS011;53446;50.076;8.198;2023-06-05T04:00:41;130.00;;;79.18;;
66587;SDS011;53446;50.076;8.198;2023-06-05T04:02:42;141.38;;;82.82;;
66587;SDS011;53446;50.076;8.198;2023-06-05T04:04:43;139.97;;;82.77;;
66587;SDS011;53446;50.076;8.198;2023-06-05T04:06:43;142.20;;;83.57;;
66587;SDS011;53446;50.076;8.198;2023-06-05T04:08:43;136.00;;;81.47;;
66587;SDS011;53446;50.076;8.198;2023-06-05T04:10:44;136.85;;;82.10;;
66587;SDS011;53446;50.076;8.198;2023-06-05T04:12:44;143.10;;;84.07;;
66587;SDS011;53446;50.076;8.198;2023-06-05T04:14:44;138.70;;;82.43;;
66587;SDS011;53446;50.076;8.198;2023-06-05T04:16:45;135.50;;;81.47;;
66587;SDS011;53446;50.076;8.198;2023-06-05T04:18:46;138.20;;;82.00;;
66587;SDS011;53446;50.076;8.198;2023-06-05T04:20:46;136.63;;;80.63;;
66587;SDS011;53446;50.076;8.198;2023-06-05T04:22:47;135.33;;;82.03;;
66587;SDS011;53446;50.076;8.198;2023-06-05T04:24:47;135.20;;;81.30;;
66587;SDS011;53446;50.076;8.198;2023-06-05T04:26:47;137.97;;;82.50;;
66587;SDS011;53446;50.076;8.198;2023-06-05T04:28:48;141.30;;;83.33;;
66587;SDS011;53446;50.076;8.198;2023-06-05T04:30:51;143.27;;;84.10;;
66587;SDS011;53446;50.076;8.198;2023-06-05T04:32:51;72.20;;;57.67;;
66587;SDS011;53446;50.076;8.198;2023-06-05T04:34:54;59.95;;;52.13;;
66587;SDS011;53446;50.076;8.198;2023-06-05T04:36:54;59.33;;;51.90;;
66587;SDS011;53446;50.076;8.198;2023-06-05T04:38:56;52.50;;;46.88;;
66587;SDS011;53446;50.076;8.198;2023-06-05T04:40:56;50.57;;;45.17;;
66587;SDS011;53446;50.076;8.198;2023-06-05T04:42:57;46.33;;;41.53;;
66587;SDS011;53446;50.076;8.198;2023-06-05T04:44:58;43.53;;;39.00;;
66587;SDS011;53446;50.076;8.198;2023-06-05T04:47:03;45.40;;;40.75;;
66587;SDS011;53446;50.076;8.198;2023-06-05T04:49:06;48.78;;;43.72;;
66587;SDS011;53446;50.076;8.198;2023-06-05T04:51:07;50.90;;;45.47;;
66587;SDS011;53446;50.076;8.198;2023-06-05T04:53:07;49.20;;;44.07;;
66587;SDS011;53446;50.076;8.198;2023-06-05T04:55:08;59.03;;;49.92;;
66587;SDS011;53446;50.076;8.198;2023-06-05T04:57:08;46.60;;;41.30;;
66587;SDS011;53446;50.076;8.198;2023-06-05T04:59:10;38.55;;;34.25;;
66587;SDS011;53446;50.076;8.198;2023-06-05T05:01:10;34.83;;;31.20;;
66587;SDS011;53446;50.076;8.198;2023-06-05T05:03:11;33.77;;;30.33;;
66587;SDS011;53446;50.076;8.198;2023-06-05T05:05:13;32.65;;;29.27;;
66587;SDS011;53446;50.076;8.198;2023-06-05T05:07:15;30.55;;;27.00;;
66587;SDS011;53446;50.076;8.198;2023-06-05T05:09:16;28.85;;;24.80;;
66587;SDS011;53446;50.076;8.198;2023-06-05T05:11:17;24.83;;;20.33;;
66587;SDS011;53446;50.076;8.198;2023-06-05T05:13:17;23.07;;;17.70;;
66587;SDS011;53446;50.076;8.198;2023-06-05T05:15:19;22.88;;;16.45;;
66587;SDS011;53446;50.076;8.198;2023-06-05T05:17:20;19.17;;;13.88;;
66587;SDS011;53446;50.076;8.198;2023-06-05T05:19:20;23.27;;;15.90;;
66587;SDS011;53446;50.076;8.198;2023-06-05T05:21:22;20.75;;;14.90;;
66587;SDS011;53446;50.076;8.198;2023-06-05T05:23:22;21.83;;;15.03;;
66587;SDS011;53446;50.076;8.198;2023-06-05T05:25:22;18.93;;;13.83;;
66587;SDS011;53446;50.076;8.198;2023-06-05T05:27:23;21.67;;;13.97;;
66587;SDS011;53446;50.076;8.198;2023-06-05T05:29:24;19.30;;;13.25;;
66587;SDS011;53446;50.076;8.198;2023-06-05T05:31:25;20.70;;;12.43;;
66587;SDS011;53446;50.076;8.198;2023-06-05T05:33:25;19.77;;;12.40;;
66587;SDS011;53446;50.076;8.198;2023-06-05T05:35:25;19.87;;;12.70;;
66587;SDS011;53446;50.076;8.198;2023-06-05T05:37:26;17.97;;;11.87;;
66587;SDS011;53446;50.076;8.198;2023-06-05T05:39:26;21.13;;;11.97;;
66587;SDS011;53446;50.076;8.198;2023-06-05T05:41:26;18.33;;;11.20;;
66587;SDS011;53446;50.076;8.198;2023-06-05T05:43:27;20.25;;;12.20;;
66587;SDS011;53446;50.076;8.198;2023-06-05T05:45:27;18.23;;;10.00;;
66587;SDS011;53446;50.076;8.198;2023-06-05T05:47:27;21.83;;;12.00;;
66587;SDS011;53446;50.076;8.198;2023-06-05T05:49:28;18.40;;;10.43;;
66587;SDS011;53446;50.076;8.198;2023-06-05T05:51:28;18.70;;;10.73;;
66587;SDS011;53446;50.076;8.198;2023-06-05T05:53:28;16.77;;;9.80;;
66587;SDS011;53446;50.076;8.198;2023-06-05T05:55:28;18.47;;;10.23;;
66587;SDS011;53446;50.076;8.198;2023-06-05T05:57:29;18.30;;;9.60;;
66587;SDS011;53446;50.076;8.198;2023-06-05T05:59:30;17.33;;;9.18;;
66587;SDS011;53446;50.076;8.198;2023-06-05T06:01:30;17.73;;;10.17;;
66587;SDS011;53446;50.076;8.198;2023-06-05T06:03:32;17.20;;;9.52;;
66587;SDS011;53446;50.076;8.198;2023-06-05T06:05:36;16.20;;;8.55;;
66587;SDS011;53446;50.076;8.198;2023-06-05T06:07:37;17.13;;;9.85;;
66587;SDS011;53446;50.076;8.198;2023-06-05T06:09:40;18.35;;;9.95;;
66587;SDS011;53446;50.076;8.198;2023-06-05T06:11:41;22.23;;;10.68;;
66587;SDS011;53446;50.076;8.198;2023-06-05T06:13:43;19.57;;;9.63;;
66587;SDS011;53446;50.076;8.198;2023-06-05T06:15:43;18.33;;;9.15;;
66587;SDS011;53446;50.076;8.198;2023-06-05T06:17:44;16.00;;;8.25;;
66587;SDS011;53446;50.076;8.198;2023-06-05T06:19:44;18.43;;;8.87;;
66587;SDS011;53446;50.076;8.198;2023-06-05T06:21:44;16.37;;;8.37;;
66587;SDS011;53446;50.076;8.198;2023-06-05T06:23:45;18.43;;;8.37;;
66587;SDS011;53446;50.076;8.198;2023-06-05T06:25:45;16.45;;;7.85;;
66587;SDS011;53446;50.076;8.198;2023-06-05T06:27:46;17.90;;;9.15;;
66587;SDS011;53446;50.076;8.198;2023-06-05T06:29:49;16.05;;;7.78;;
66587;SDS011;53446;50.076;8.198;2023-06-05T06:31:52;17.00;;;7.80;;
66587;SDS011;53446;50.076;8.198;2023-06-05T06:33:52;16.17;;;7.97;;
66587;SDS011;53446;50.076;8.198;2023-06-05T06:35:52;16.23;;;7.90;;
66587;SDS011;53446;50.076;8.198;2023-06-05T06:37:53;15.77;;;7.43;;
66587;SDS011;53446;50.076;8.198;2023-06-05T06:39:54;14.02;;;7.20;;
66587;SDS011;53446;50.076;8.198;2023-06-05T06:41:55;19.00;;;7.93;;
66587;SDS011;53446;50.076;8.198;2023-06-05T06:43:57;14.90;;;7.60;;
66587;SDS011;53446;50.076;8.198;2023-06-05T06:45:57;17.27;;;8.40;;
66587;SDS011;53446;50.076;8.198;2023-06-05T06:48:00;14.93;;;7.65;;
66587;SDS011;53446;50.076;8.198;2023-06-05T06:50:00;16.20;;;8.03;;
66587;SDS011;53446;50.076;8.198;2023-06-05T06:52:00;15.87;;;7.83;;
66587;SDS011;53446;50.076;8.198;2023-06-05T06:54:01;15.63;;;7.70;;
66587;SDS011;53446;50.076;8.198;2023-06-05T06:56:01;18.47;;;8.20;;
66587;SDS011;53446;50.076;8.198;2023-06-05T06:58:02;15.90;;;7.40;;
66587;SDS011;53446;50.076;8.198;2023-06-05T07:00:02;14.43;;;7.40;;
66587;SDS011;53446;50.076;8.198;2023-06-05T07:02:08;16.45;;;7.60;;
66587;SDS011;53446;50.076;8.198;2023-06-05T07:04:10;15.30;;;7.65;;
66587;SDS011;53446;50.076;8.198;2023-06-05T07:06:10;14.33;;;7.23;;
66587;SDS011;53446;50.076;8.198;2023-06-05T07:08:11;13.52;;;6.30;;
66587;SDS011;53446;50.076;8.198;2023-06-05T07:10:12;17.37;;;8.33;;
66587;SDS011;53446;50.076;8.198;2023-06-05T07:12:13;14.00;;;6.90;;
66587;SDS011;53446;50.076;8.198;2023-06-05T07:14:14;18.52;;;7.20;;
66587;SDS011;53446;50.076;8.198;2023-06-05T07:16:14;14.97;;;7.33;;
66587;SDS011;53446;50.076;8.198;2023-06-05T07:18:16;14.70;;;6.83;;
66587;SDS011;53446;50.076;8.198;2023-06-05T07:20:17;13.82;;;6.95;;
66587;SDS011;53446;50.076;8.198;2023-06-05T07:22:17;17.80;;;7.63;;
66587;SDS011;53446;50.076;8.198;2023-06-05T07:24:18;14.88;;;7.38;;
66587;SDS011;53446;50.076;8.198;2023-06-05T07:26:18;14.87;;;7.43;;
66587;SDS011;53446;50.076;8.198;2023-06-05T07:28:19;16.05;;;6.75;;
66587;SDS011;53446;50.076;8.198;2023-06-05T07:30:20;16.67;;;7.50;;
66587;SDS011;53446;50.076;8.198;2023-06-05T07:32:20;15.93;;;7.07;;
66587;SDS011;53446;50.076;8.198;2023-06-05T07:34:21;14.40;;;7.00;;
66587;SDS011;53446;50.076;8.198;2023-06-05T07:36:22;15.93;;;7.28;;
66587;SDS011;53446;50.076;8.198;2023-06-05T07:38:23;14.90;;;6.90;;
66587;SDS011;53446;50.076;8.198;2023-06-05T07:40:23;13.43;;;6.83;;
66587;SDS011;53446;50.076;8.198;2023-06-05T07:42:23;15.50;;;7.20;;
66587;SDS011;53446;50.076;8.198;2023-06-05T07:44:24;13.73;;;6.70;;
66587;SDS011;53446;50.076;8.198;2023-06-05T07:46:24;14.93;;;7.57;;
66587;SDS011;53446;50.076;8.198;2023-06-05T07:48:24;13.67;;;7.10;;
66587;SDS011;53446;50.076;8.198;2023-06-05T07:50:25;13.20;;;6.73;;
66587;SDS011;53446;50.076;8.198;2023-06-05T07:52:29;14.30;;;7.50;;
66587;SDS011;53446;50.076;8.198;2023-06-05T07:54:30;13.52;;;6.72;;
66587;SDS011;53446;50.076;8.198;2023-06-05T07:56:30;13.33;;;6.40;;
66587;SDS011;53446;50.076;8.198;2023-06-05T07:58:32;15.68;;;6.43;;
66587;SDS011;53446;50.076;8.198;2023-06-05T08:00:32;13.67;;;6.33;;
66587;SDS011;53446;50.076;8.198;2023-06-05T08:02:34;14.25;;;6.70;;
66587;SDS011;53446;50.076;8.198;2023-06-05T08:04:34;15.20;;;7.13;;
66587;SDS011;53446;50.076;8.198;2023-06-05T08:06:35;15.30;;;6.88;;
66587;SDS011;53446;50.076;8.198;2023-06-05T08:08:37;14.70;;;6.78;;
66587;SDS011;53446;50.076;8.198;2023-06-05T08:10:38;13.90;;;6.77;;
66587;SDS011;53446;50.076;8.198;2023-06-05T08:12:39;17.50;;;6.47;;
66587;SDS011;53446;50.076;8.198;2023-06-05T08:14:39;14.07;;;6.10;;
66587;SDS011;53446;50.076;8.198;2023-06-05T08:16:40;16.90;;;6.50;;
66587;SDS011;53446;50.076;8.198;2023-06-05T08:18:40;14.90;;;6.88;;
66587;SDS011;53446;50.076;8.198;2023-06-05T08:20:41;14.95;;;6.75;;
66587;SDS011;53446;50.076;8.198;2023-06-05T08:22:41;15.83;;;6.53;;
66587;SDS011;53446;50.076;8.198;2023-06-05T08:24:42;14.48;;;7.03;;
66587;SDS011;53446;50.076;8.198;2023-06-05T08:26:43;13.67;;;6.50;;
66587;SDS011;53446;50.076;8.198;2023-06-05T08:28:43;14.50;;;7.00;;
66587;SDS011;53446;50.076;8.198;2023-06-05T08:30:43;14.70;;;7.50;;
66587;SDS011;53446;50.076;8.198;2023-06-05T08:32:46;16.98;;;7.25;;
66587;SDS011;53446;50.076;8.198;2023-06-05T08:34:47;17.85;;;7.10;;
66587;SDS011;53446;50.076;8.198;2023-06-05T08:36:47;13.77;;;6.63;;
66587;SDS011;53446;50.076;8.198;2023-06-05T08:38:47;13.77;;;6.90;;
66587;SDS011;53446;50.076;8.198;2023-06-05T08:40:48;15.13;;;6.97;;
66587;SDS011;53446;50.076;8.198;2023-06-05T08:42:53;14.65;;;7.20;;
66587;SDS011;53446;50.076;8.198;2023-06-05T08:44:54;16.00;;;6.67;;
66587;SDS011;53446;50.076;8.198;2023-06-05T08:46:58;12.90;;;6.40;;
66587;SDS011;53446;50.076;8.198;2023-06-05T08:49:00;15.18;;;6.32;;
66587;SDS011;53446;50.076;8.198;2023-06-05T08:51:09;15.95;;;7.05;;
66587;SDS011;53446;50.076;8.198;2023-06-05T08:53:12;15.15;;;6.45;;
66587;SDS011;53446;50.076;8.198;2023-06-05T08:55:13;13.18;;;6.47;;
66587;SDS011;53446;50.076;8.198;2023-06-05T08:57:14;13.55;;;6.78;;
66587;SDS011;53446;50.076;8.198;2023-06-05T08:59:15;14.33;;;6.80;;
66587;SDS011;53446;50.076;8.198;2023-06-05T09:01:16;13.25;;;6.25;;
66587;SDS011;53446;50.076;8.198;2023-06-05T09:03:16;15.03;;;7.77;;
66587;SDS011;53446;50.076;8.198;2023-06-05T09:05:20;14.68;;;6.90;;
66587;SDS011;53446;50.076;8.198;2023-06-05T09:07:20;15.17;;;7.07;;
66587;SDS011;53446;50.076;8.198;2023-06-05T09:09:20;16.73;;;7.53;;
66587;SDS011;53446;50.076;8.198;2023-06-05T09:11:24;15.20;;;7.00;;
66587;SDS011;53446;50.076;8.198;2023-06-05T09:13:27;15.52;;;7.18;;
66587;SDS011;53446;50.076;8.198;2023-06-05T09:15:44;14.07;;;7.20;;
66587;SDS011;53446;50.076;8.198;2023-06-05T09:20:23;15.45;;;7.43;;
66587;SDS011;53446;50.076;8.198;2023-06-05T09:22:33;17.63;;;7.53;;
66587;SDS011;53446;50.076;8.198;2023-06-05T09:24:34;16.27;;;7.80;;
66587;SDS011;53446;50.076;8.198;2023-06-05T09:26:48;14.77;;;7.57;;
66587;SDS011;53446;50.076;8.198;2023-06-05T09:29:02;15.75;;;7.35;;
66587;SDS011;53446;50.076;8.198;2023-06-05T09:31:03;14.73;;;7.40;;
66587;SDS011;53446;50.076;8.198;2023-06-05T09:33:10;19.27;;;8.37;;
66587;SDS011;53446;50.076;8.198;2023-06-05T09:35:10;16.05;;;7.47;;
66587;SDS011;53446;50.076;8.198;2023-06-05T09:37:16;16.65;;;8.02;;
66587;SDS011;53446;50.076;8.198;2023-06-05T09:39:16;17.67;;;8.25;;
66587;SDS011;53446;50.076;8.198;2023-06-05T09:41:19;17.80;;;7.80;;
66587;SDS011;53446;50.076;8.198;2023-06-05T09:43:23;14.88;;;7.85;;
66587;SDS011;53446;50.076;8.198;2023-06-05T09:45:25;15.43;;;7.60;;
66587;SDS011;53446;50.076;8.198;2023-06-05T09:47:40;14.85;;;7.47;;
66587;SDS011;53446;50.076;8.198;2023-06-05T09:51:45;16.30;;;8.00;;
66587;SDS011;53446;50.076;8.198;2023-06-05T09:53:49;14.10;;;7.30;;
66587;SDS011;53446;50.076;8.198;2023-06-05T09:55:49;15.75;;;7.50;;
66587;SDS011;53446;50.076;8.198;2023-06-05T09:57:50;16.52;;;7.43;;
66587;SDS011;53446;50.076;8.198;2023-06-05T09:59:52;17.27;;;7.22;;
66587;SDS011;53446;50.076;8.198;2023-06-05T10:01:54;16.85;;;8.45;;
66587;SDS011;53446;50.076;8.198;2023-06-05T10:03:58;17.02;;;8.25;;
66587;SDS011;53446;50.076;8.198;2023-06-05T10:06:09;12.98;;;6.88;;
66587;SDS011;53446;50.076;8.198;2023-06-05T10:08:10;14.67;;;7.23;;
66587;SDS011;53446;50.076;8.198;2023-06-05T10:10:11;14.55;;;6.78;;
66587;SDS011;53446;50.076;8.198;2023-06-05T10:12:11;14.53;;;7.40;;
66587;SDS011;53446;50.076;8.198;2023-06-05T10:14:12;13.63;;;7.07;;
66587;SDS011;53446;50.076;8.198;2023-06-05T10:16:13;14.48;;;7.18;;
66587;SDS011;53446;50.076;8.198;2023-06-05T10:18:13;16.57;;;7.33;;
66587;SDS011;53446;50.076;8.198;2023-06-05T10:20:13;14.50;;;7.00;;
66587;SDS011;53446;50.076;8.198;2023-06-05T10:22:16;15.70;;;7.72;;
66587;SDS011;53446;50.076;8.198;2023-06-05T10:24:18;15.50;;;7.25;;
66587;SDS011;53446;50.076;8.198;2023-06-05T10:26:43;16.03;;;7.63;;
66587;SDS011;53446;50.076;8.198;2023-06-05T10:34:02;13.85;;;7.22;;
66587;SDS011;53446;50.076;8.198;2023-06-05T10:36:10;13.70;;;7.07;;
66587;SDS011;53446;50.076;8.198;2023-06-05T10:38:26;14.03;;;6.93;;
66587;SDS011;53446;50.076;8.198;2023-06-05T10:40:27;16.50;;;7.63;;
66587;SDS011;53446;50.076;8.198;2023-06-05T10:42:28;15.55;;;7.55;;
66587;SDS011;53446;50.076;8.198;2023-06-05T10:44:38;15.07;;;7.35;;
66587;SDS011;53446;50.076;8.198;2023-06-05T10:46:39;15.20;;;7.30;;
66587;SDS011;53446;50.076;8.198;2023-06-05T10:53:44;13.13;;;7.03;;
66587;SDS011;53446;50.076;8.198;2023-06-05T10:55:46;17.83;;;9.02;;
66587;SDS011;53446;50.076;8.198;2023-06-05T11:00:05;18.40;;;7.47;;
66587;SDS011;53446;50.076;8.198;2023-06-05T11:04:08;16.08;;;7.53;;
66587;SDS011;53446;50.076;8.198;2023-06-05T11:06:12;13.60;;;6.77;;
66587;SDS011;53446;50.076;8.198;2023-06-05T11:08:14;13.57;;;7.15;;
66587;SDS011;53446;50.076;8.198;2023-06-05T11:10:18;13.95;;;6.90;;
66587;SDS011;53446;50.076;8.198;2023-06-05T11:12:21;15.80;;;6.90;;
66587;SDS011;53446;50.076;8.198;2023-06-05T11:14:21;14.87;;;6.90;;
66587;SDS011;53446;50.076;8.198;2023-06-05T11:16:25;13.90;;;7.27;;
66587;SDS011;53446;50.076;8.198;2023-06-05T11:18:26;13.57;;;6.75;;
66587;SDS011;53446;50.076;8.198;2023-06-05T11:22:27;14.63;;;7.63;;
66587;SDS011;53446;50.076;8.198;2023-06-05T11:24:29;14.73;;;6.95;;
66587;SDS011;53446;50.076;8.198;2023-06-05T11:26:40;14.13;;;7.30;;
66587;SDS011;53446;50.076;8.198;2023-06-05T11:28:43;15.30;;;7.35;;
66587;SDS011;53446;50.076;8.198;2023-06-05T11:30:44;13.80;;;7.10;;
66587;SDS011;53446;50.076;8.198;2023-06-05T11:32:45;15.43;;;8.15;;
66587;SDS011;53446;50.076;8.198;2023-06-05T11:34:46;15.93;;;8.25;;
66587;SDS011;53446;50.076;8.198;2023-06-05T11:36:47;14.82;;;7.78;;
66587;SDS011;53446;50.076;8.198;2023-06-05T11:38:53;20.17;;;8.53;;
66587;SDS011;53446;50.076;8.198;2023-06-05T11:40:56;16.13;;;8.48;;
66587;SDS011;53446;50.076;8.198;2023-06-05T11:43:01;20.77;;;9.67;;
66587;SDS011;53446;50.076;8.198;2023-06-05T11:45:03;15.95;;;7.82;;
66587;SDS011;53446;50.076;8.198;2023-06-05T11:47:21;15.13;;;7.55;;
66587;SDS011;53446;50.076;8.198;2023-06-05T11:49:26;13.90;;;7.60;;
66587;SDS011;53446;50.076;8.198;2023-06-05T11:51:32;14.90;;;7.70;;
66587;SDS011;53446;50.076;8.198;2023-06-05T11:53:33;13.25;;;6.93;;
66587;SDS011;53446;50.076;8.198;2023-06-05T11:55:34;12.60;;;7.00;;
66587;SDS011;53446;50.076;8.198;2023-06-05T11:57:54;12.35;;;6.85;;
66587;SDS011;53446;50.076;8.198;2023-06-05T11:59:54;11.27;;;6.60;;
66587;SDS011;53446;50.076;8.198;2023-06-05T12:01:54;12.67;;;6.47;;
66587;SDS011;53446;50.076;8.198;2023-06-05T12:04:02;12.20;;;7.00;;
66587;SDS011;53446;50.076;8.198;2023-06-05T12:06:06;14.00;;;7.03;;
66587;SDS011;53446;50.076;8.198;2023-06-05T12:08:22;12.20;;;7.00;;
66587;SDS011;53446;50.076;8.198;2023-06-05T12:10:34;13.50;;;7.63;;
66587;SDS011;53446;50.076;8.198;2023-06-05T12:12:51;13.88;;;7.00;;
66587;SDS011;53446;50.076;8.198;2023-06-05T12:14:52;14.32;;;7.25;;
66587;SDS011;53446;50.076;8.198;2023-06-05T12:16:54;14.32;;;7.90;;
66587;SDS011;53446;50.076;8.198;2023-06-05T12:18:54;12.35;;;7.40;;
66587;SDS011;53446;50.076;8.198;2023-06-05T12:20:55;14.30;;;7.22;;